Time;durP1;ratioP1;P1;durP2;ratioP2;P2;SDS_P1;SDS_P2;PMS_P1;PMS_P2;Temp;Humidity;BMP_temperature;BMP_pressure;BME280_temperature;BME280_humidity;BME280_pressure;Samples;Min_cycle;Max_cycle;Signal;HPM_P1;HPM_P2
2022/07/28 00:00:05;;;;;;;2.55;0.88;;;;;;;20.73;43.21;99509.19;344416;28;1985;-68
2022/07/28 00:00:19;;;;;;;1.80;0.82;;;;;;;20.74;43.07;99505.59;343236;28;1623;-68
2022/07/28 00:00:32;;;;;;;1.10;0.82;;;;;;;20.73;43.31;99505.72;343387;28;1524;-68
2022/07/28 00:00:44;;;;;;;1.20;0.90;;;;;;;20.71;43.01;99503.19;343170;28;1776;-68
2022/07/28 00:00:56;;;;;;;1.83;0.82;;;;;;;20.73;43.21;99503.91;343747;28;1973;-68
2022/07/28 00:01:08;;;;;;;2.20;0.80;;;;;;;20.74;43.31;99513.53;342879;28;1636;-68
2022/07/28 00:01:20;;;;;;;2.00;0.80;;;;;;;20.74;43.58;99505.59;343798;28;1440;-69
2022/07/28 00:01:32;;;;;;;1.55;0.80;;;;;;;20.76;43.47;99510.75;343592;28;1173;-68
2022/07/28 00:01:44;;;;;;;1.10;0.85;;;;;;;20.73;42.94;99501.28;342530;28;1888;-68
2022/07/28 00:01:56;;;;;;;1.13;0.90;;;;;;;20.72;43.40;99510.13;343466;28;1738;-68
2022/07/28 00:02:08;;;;;;;1.65;0.90;;;;;;;20.73;43.38;99509.19;342468;28;1119;-69
2022/07/28 00:02:21;;;;;;;2.13;0.93;;;;;;;20.72;43.49;99512.78;342400;28;1192;-69
2022/07/28 00:02:33;;;;;;;3.43;1.00;;;;;;;20.72;43.46;99504.03;342274;28;1121;-68
2022/07/28 00:02:45;;;;;;;3.30;1.10;;;;;;;20.71;43.64;99508.47;342340;28;1627;-68
2022/07/28 00:02:57;;;;;;;3.42;1.10;;;;;;;20.73;43.32;99503.06;343559;28;1949;-69
2022/07/28 00:03:09;;;;;;;2.70;1.10;;;;;;;20.74;43.42;99502.97;346097;28;1167;-68
2022/07/28 00:03:21;;;;;;;3.47;1.10;;;;;;;20.76;43.55;99510.75;345130;28;1797;-68
2022/07/28 00:03:33;;;;;;;3.65;1.00;;;;;;;20.74;43.07;99497.69;343872;28;1011;-69
2022/07/28 00:03:47;;;;;;;3.38;0.90;;;;;;;20.74;43.47;99505.59;343378;28;2156;-68
2022/07/28 00:04:00;;;;;;;2.10;0.90;;;;;;;20.74;43.74;99505.59;343919;28;1715;-68
2022/07/28 00:04:12;;;;;;;2.65;0.93;;;;;;;20.75;43.79;99509.09;344613;28;1434;-68
2022/07/28 00:04:25;;;;;;;5.03;0.90;;;;;;;20.75;43.93;99504.63;344357;28;1361;-68
2022/07/28 00:04:37;;;;;;;5.55;0.90;;;;;;;20.75;43.58;99504.63;344951;28;1358;-68
2022/07/28 00:04:49;;;;;;;3.75;0.93;;;;;;;20.73;43.47;99498.63;345112;28;1377;-68
2022/07/28 00:05:02;;;;;;;3.30;0.90;;;;;;;20.73;42.85;99503.91;344939;28;1323;-68
2022/07/28 00:05:14;;;;;;;1.92;0.80;;;;;;;20.74;43.02;99505.59;344790;28;1031;-68
2022/07/28 00:05:26;;;;;;;1.30;0.80;;;;;;;20.73;42.99;99506.56;345023;28;1043;-68
2022/07/28 00:05:40;;;;;;;2.05;0.90;;;;;;;20.75;43.21;99502.00;344923;28;1300;-68
2022/07/28 00:05:52;;;;;;;1.90;0.85;;;;;;;20.75;42.78;99504.63;344454;28;1830;-68
2022/07/28 00:06:04;;;;;;;1.50;0.80;;;;;;;20.74;43.37;99505.59;343738;28;1932;-68
2022/07/28 00:06:16;;;;;;;1.83;0.77;;;;;;;20.73;43.11;99501.28;343814;28;1862;-68
2022/07/28 00:06:28;;;;;;;2.10;0.80;;;;;;;20.72;42.83;99504.84;344777;28;1651;-68
2022/07/28 00:06:40;;;;;;;2.33;0.77;;;;;;;20.73;43.03;99495.97;345089;28;1074;-68
2022/07/28 00:06:52;;;;;;;1.90;0.80;;;;;;;20.72;43.49;99496.09;344151;28;1855;-68
2022/07/28 00:07:04;;;;;;;2.70;0.90;;;;;;;20.72;43.46;99499.56;343619;28;1381;-69
2022/07/28 00:07:16;;;;;;;2.55;0.90;;;;;;;20.72;42.93;99496.94;343783;28;1185;-68
2022/07/28 00:07:28;;;;;;;1.98;1.00;;;;;;;20.72;42.63;99507.50;343327;28;1723;-68
2022/07/28 00:07:40;;;;;;;3.25;1.00;;;;;;;20.74;42.34;99502.09;343674;28;1521;-68
2022/07/28 00:07:52;;;;;;;3.33;0.90;;;;;;;20.74;42.29;99504.75;343149;28;2043;-68
2022/07/28 00:08:04;;;;;;;3.30;0.82;;;;;;;20.74;42.92;99502.09;343558;28;1365;-69
2022/07/28 00:08:17;;;;;;;2.90;0.85;;;;;;;20.74;42.86;99502.97;343314;28;1276;-68
2022/07/28 00:08:28;;;;;;;3.13;0.90;;;;;;;20.74;43.10;99502.97;344110;28;1176;-68
2022/07/28 00:08:40;;;;;;;3.35;0.90;;;;;;;20.72;42.92;99504.03;343699;28;1622;-68
2022/07/28 00:08:53;;;;;;;2.00;0.90;;;;;;;20.73;43.04;99498.63;344546;28;1584;-67
2022/07/28 00:09:05;;;;;;;1.35;0.80;;;;;;;20.74;43.09;99507.38;343618;28;1307;-68
2022/07/28 00:09:17;;;;;;;1.80;0.75;;;;;;;20.73;43.12;99495.16;343265;28;2042;-68
2022/07/28 00:09:29;;;;;;;2.03;0.80;;;;;;;20.74;42.63;99502.09;342788;28;1050;-69
2022/07/28 00:09:41;;;;;;;2.00;0.80;;;;;;;20.74;42.83;99492.41;343202;28;2460;-69
2022/07/28 00:09:53;;;;;;;2.30;0.80;;;;;;;20.74;43.02;99492.41;344944;28;1836;-68
2022/07/28 00:10:12;;;;;;;3.25;0.80;;;;;;;20.75;42.52;99501.16;343706;28;1106;-68
2022/07/28 00:10:24;;;;;;;3.60;0.77;;;;;;;20.74;42.78;99495.03;343980;28;1059;-68
2022/07/28 00:10:36;;;;;;;4.43;0.93;;;;;;;20.77;42.69;99499.25;343495;28;1775;-68
2022/07/28 00:10:48;;;;;;;2.55;1.00;;;;;;;20.78;43.25;99497.44;343787;28;1131;-68
2022/07/28 00:11:00;;;;;;;1.48;0.95;;;;;;;20.79;43.42;99493.84;342985;28;1345;-68
2022/07/28 00:11:12;;;;;;;1.92;0.90;;;;;;;20.78;43.44;99492.97;343787;28;1605;-68
2022/07/28 00:11:24;;;;;;;3.30;1.38;;;;;;;20.79;42.76;99499.13;343705;28;1102;-68
2022/07/28 00:11:36;;;;;;;3.60;1.40;;;;;;;20.78;42.47;99497.44;343348;28;1707;-68
2022/07/28 00:12:06;;;;;;;1.83;1.00;;;;;;;20.80;42.01;99498.97;342912;28;1317;-69
2022/07/28 00:12:18;;;;;;;1.83;1.00;;;;;;;20.77;41.52;99496.59;342873;28;2288;-68
2022/07/28 00:12:30;;;;;;;1.63;0.98;;;;;;;20.78;41.58;99492.97;343769;28;1241;-68
2022/07/28 00:12:42;;;;;;;2.22;0.82;;;;;;;20.79;41.42;99494.69;342817;28;1856;-69
2022/07/28 00:12:54;;;;;;;2.47;0.80;;;;;;;20.77;41.67;99491.31;344273;28;1936;-68
2022/07/28 00:13:06;;;;;;;1.90;0.80;;;;;;;20.74;42.39;99497.69;343585;28;1210;-69
2022/07/28 00:13:18;;;;;;;2.45;0.75;;;;;;;20.77;42.47;99490.47;343619;28;1064;-68
2022/07/28 00:13:30;;;;;;;2.47;0.80;;;;;;;20.76;42.58;99494.91;343491;28;1191;-68
2022/07/28 00:13:42;;;;;;;1.98;0.80;;;;;;;20.78;42.69;99505.34;343139;28;2054;-68
2022/07/28 00:13:54;;;;;;;2.22;0.90;;;;;;;20.79;42.68;99499.13;344630;28;1803;-68
2022/07/28 00:14:06;;;;;;;2.78;0.90;;;;;;;20.79;42.41;99493.84;343425;28;1263;-68
2022/07/28 00:14:20;;;;;;;2.63;0.95;;;;;;;20.79;42.26;99493.84;343277;28;1633;-68
2022/07/28 00:14:32;;;;;;;1.77;0.82;;;;;;;20.79;42.16;99493.84;343240;28;1330;-69
2022/07/28 00:14:44;;;;;;;1.70;0.80;;;;;;;20.79;41.77;99493.84;343820;28;1560;-69
2022/07/28 00:14:56;;;;;;;1.80;0.82;;;;;;;20.76;42.13;99494.91;344390;28;1233;-68
2022/07/28 00:15:08;;;;;;;1.50;0.90;;;;;;;20.77;42.76;99495.75;343464;28;1886;-68
2022/07/28 00:15:20;;;;;;;1.95;0.90;;;;;;;20.75;42.87;99494.06;345049;28;1324;-69
2022/07/28 00:15:33;;;;;;;2.30;0.85;;;;;;;20.77;42.94;99487.84;344334;28;1700;-68
2022/07/28 00:15:45;;;;;;;2.65;0.80;;;;;;;20.79;42.86;99491.19;343764;28;1632;-68
2022/07/28 00:15:57;;;;;;;2.17;0.70;;;;;;;20.79;42.89;99493.84;343642;28;1252;-68
2022/07/28 00:16:09;;;;;;;2.83;0.80;;;;;;;20.79;42.64;99489.41;342579;28;1027;-67
2022/07/28 00:16:22;;;;;;;2.53;0.90;;;;;;;20.79;42.48;99493.84;343678;28;1067;-69
2022/07/28 00:16:34;;;;;;;1.80;0.88;;;;;;;20.80;42.74;99490.22;343701;28;1724;-68
2022/07/28 00:16:46;;;;;;;1.20;0.70;;;;;;;20.81;42.37;99489.28;344837;28;1481;-68
2022/07/28 00:16:58;;;;;;;1.23;0.80;;;;;;;20.80;42.44;99495.50;344373;28;1252;-68
2022/07/28 00:17:10;;;;;;;0.93;0.80;;;;;;;20.81;42.52;99491.94;343871;28;1331;-68
2022/07/28 00:17:22;;;;;;;1.35;0.80;;;;;;;20.81;42.41;99489.28;345022;28;1249;-68
2022/07/28 00:17:34;;;;;;;1.50;0.80;;;;;;;20.81;42.42;99492.75;344533;28;2468;-68
2022/07/28 00:17:46;;;;;;;1.95;0.80;;;;;;;20.83;42.16;99495.28;345225;28;1807;-68
2022/07/28 00:17:59;;;;;;;1.60;0.80;;;;;;;20.85;42.27;99493.38;345334;28;1978;-68
2022/07/28 00:18:11;;;;;;;2.13;0.90;;;;;;;20.84;42.11;99486.38;344124;28;1098;-68
2022/07/28 00:18:23;;;;;;;3.80;1.00;;;;;;;20.84;42.12;99492.50;345176;28;1416;-68
2022/07/28 00:18:35;;;;;;;3.15;0.90;;;;;;;20.84;41.84;99489.03;345777;28;1745;-69
2022/07/28 00:18:47;;;;;;;1.73;1.00;;;;;;;20.84;42.49;99491.66;345108;28;1611;-68
2022/07/28 00:18:59;;;;;;;1.30;0.93;;;;;;;20.85;42.29;99488.09;344624;28;1275;-68
2022/07/28 00:19:11;;;;;;;1.77;1.00;;;;;;;20.85;42.05;99488.09;344620;28;1277;-68
2022/07/28 00:19:23;;;;;;;2.70;0.90;;;;;;;20.83;41.77;99490.84;344498;28;2224;-68
2022/07/28 00:19:35;;;;;;;2.47;0.90;;;;;;;20.84;42.33;99491.66;343569;28;1734;-69
2022/07/28 00:19:47;;;;;;;2.60;0.80;;;;;;;20.85;42.14;99490.72;344333;28;1713;-68
2022/07/28 00:19:59;;;;;;;2.35;0.80;;;;;;;20.85;42.29;99494.19;343652;28;1728;-68
2022/07/28 00:20:11;;;;;;;3.33;0.80;;;;;;;20.84;42.34;99491.66;343812;28;1133;-68
2022/07/28 00:20:24;;;;;;;2.72;0.80;;;;;;;20.86;41.74;99495.03;343693;28;1110;-68
2022/07/28 00:20:36;;;;;;;1.67;0.77;;;;;;;20.87;42.32;99489.63;343282;28;1688;-68
2022/07/28 00:20:48;;;;;;;1.27;0.70;;;;;;;20.88;42.62;99493.09;343833;28;1764;-68
2022/07/28 00:21:01;;;;;;;2.15;0.90;;;;;;;20.89;42.50;99489.53;344480;28;1158;-68
2022/07/28 00:21:13;;;;;;;2.00;0.80;;;;;;;20.88;41.97;99493.94;343714;28;1161;-68
2022/07/28 00:21:25;;;;;;;2.03;0.80;;;;;;;20.89;41.88;99494.81;342648;28;1062;-69
2022/07/28 00:21:37;;;;;;;1.80;0.80;;;;;;;20.91;42.10;99492.88;342284;28;1047;-68
2022/07/28 00:21:49;;;;;;;1.73;0.80;;;;;;;20.91;42.36;99487.59;341977;28;1071;-68
2022/07/28 00:22:01;;;;;;;1.65;0.80;;;;;;;20.92;42.48;99489.25;343010;28;1970;-68
2022/07/28 00:22:13;;;;;;;2.20;0.80;;;;;;;20.91;42.88;99492.88;343666;28;1309;-68
2022/07/28 00:22:25;;;;;;;3.58;0.80;;;;;;;20.91;41.51;99493.72;343922;28;1169;-68
2022/07/28 00:22:42;;;;;;;3.60;0.90;;;;;;;20.91;42.36;99492.88;342644;28;1879;-67
2022/07/28 00:22:54;;;;;;;1.83;0.80;;;;;;;20.91;42.39;99492.88;344159;28;1795;-68
2022/07/28 00:23:06;;;;;;;1.10;0.80;;;;;;;20.91;42.58;99488.44;342220;28;1051;-68
2022/07/28 00:23:18;;;;;;;1.52;0.90;;;;;;;20.91;42.03;99495.53;343850;28;1039;-69
2022/07/28 00:23:30;;;;;;;1.67;0.90;;;;;;;20.91;41.89;99484.97;343737;28;1062;-69
2022/07/28 00:23:50;;;;;;;1.98;0.80;;;;;;;20.91;42.11;99492.88;343616;28;1507;-68
2022/07/28 00:24:02;;;;;;;1.80;0.80;;;;;;;20.92;42.16;99492.75;342679;28;1784;-68
2022/07/28 00:24:14;;;;;;;1.77;0.80;;;;;;;20.90;42.37;99492.03;343408;28;1562;-68
2022/07/28 00:24:26;;;;;;;1.50;0.70;;;;;;;20.90;42.09;99485.91;344653;28;1316;-68
2022/07/28 00:24:38;;;;;;;1.30;0.73;;;;;;;20.88;42.40;99487.81;343054;28;1673;-68
2022/07/28 00:24:50;;;;;;;2.00;0.82;;;;;;;20.88;41.80;99485.19;344481;28;1852;-68
2022/07/28 00:25:02;;;;;;;1.80;0.90;;;;;;;20.88;42.59;99487.81;343503;28;1349;-68
2022/07/28 00:25:14;;;;;;;1.08;0.90;;;;;;;20.90;42.32;99485.91;343460;28;1027;-68
2022/07/28 00:25:26;;;;;;;0.82;0.80;;;;;;;20.89;41.87;99484.25;343508;28;1249;-68
2022/07/28 00:25:38;;;;;;;1.67;0.75;;;;;;;20.90;42.19;99488.53;342644;28;1861;-68
2022/07/28 00:25:50;;;;;;;1.92;0.80;;;;;;;20.91;42.02;99487.59;343096;28;1837;-68
2022/07/28 00:26:02;;;;;;;2.42;0.80;;;;;;;20.91;42.62;99482.31;343481;28;1396;-68
2022/07/28 00:26:14;;;;;;;1.80;0.70;;;;;;;20.90;42.78;99485.91;343691;28;1136;-68
2022/07/28 00:26:26;;;;;;;2.10;0.70;;;;;;;20.91;42.21;99482.31;343521;28;1077;-68
2022/07/28 00:26:38;;;;;;;2.00;0.77;;;;;;;20.91;42.03;99482.31;342761;28;1870;-68
2022/07/28 00:26:50;;;;;;;2.75;0.90;;;;;;;20.90;41.97;99486.75;344288;28;1619;-68
2022/07/28 00:27:03;;;;;;;1.70;0.88;;;;;;;20.90;42.52;99481.44;343887;28;1191;-68
2022/07/28 00:27:16;;;;;;;3.15;0.80;;;;;;;20.90;42.13;99480.63;343488;28;1759;-68
2022/07/28 00:27:30;;;;;;;3.00;0.80;;;;;;;20.92;42.30;99478.69;345138;28;1192;-68
2022/07/28 00:27:42;;;;;;;2.65;0.80;;;;;;;20.90;42.30;99483.25;344037;28;1696;-68
2022/07/28 00:27:54;;;;;;;2.90;0.80;;;;;;;20.88;41.57;99478.09;345219;28;1082;-68
2022/07/28 00:28:06;;;;;;;2.55;0.80;;;;;;;20.88;42.03;99479.91;343771;28;1040;-68
2022/07/28 00:28:18;;;;;;;2.28;0.80;;;;;;;20.90;42.50;99477.97;343484;28;1026;-68
2022/07/28 00:28:30;;;;;;;2.58;0.80;;;;;;;20.92;42.26;99483.97;343797;28;1168;-68
2022/07/28 00:28:42;;;;;;;2.67;0.85;;;;;;;20.93;42.69;99485.69;343652;28;1762;-68
2022/07/28 00:28:54;;;;;;;2.53;0.80;;;;;;;20.96;42.58;99480.13;344828;28;1329;-68
2022/07/28 00:29:07;;;;;;;2.58;0.80;;;;;;;20.95;42.58;99478.47;343708;28;1022;-68
2022/07/28 00:29:19;;;;;;;3.63;0.80;;;;;;;20.96;42.48;99477.50;343895;28;1046;-68
2022/07/28 00:29:31;;;;;;;2.75;0.70;;;;;;;20.96;42.37;99480.13;343337;28;2193;-68
2022/07/28 00:30:02;;;;;;;3.15;0.90;;;;;;;20.98;41.87;99480.84;343129;28;1246;-68
2022/07/28 00:30:14;;;;;;;3.15;0.93;;;;;;;20.98;41.68;99477.38;344248;28;1090;-68
2022/07/28 00:30:27;;;;;;;3.90;1.05;;;;;;;20.99;41.72;99484.34;344647;28;1232;-68
2022/07/28 00:30:39;;;;;;;3.40;1.05;;;;;;;21.00;41.72;99480.75;343155;28;1761;-68
2022/07/28 00:30:53;;;;;;;1.80;0.82;;;;;;;20.92;41.43;99479.53;343496;28;1847;-69
2022/07/28 00:31:05;;;;;;;1.48;0.70;;;;;;;20.92;41.32;99478.69;343634;28;1214;-68
2022/07/28 00:31:20;;;;;;;2.70;0.80;;;;;;;20.93;41.18;99485.69;343940;28;1107;-68
2022/07/28 00:31:33;;;;;;;2.92;0.80;;;;;;;20.94;41.39;99482.06;344077;28;1091;-68
2022/07/28 00:31:45;;;;;;;5.72;0.90;;;;;;;20.95;41.38;99478.47;343415;28;1645;-68
2022/07/28 00:31:58;;;;;;;5.40;0.90;;;;;;;20.92;41.29;99478.69;344148;28;1069;-68
2022/07/28 00:32:11;;;;;;;2.42;0.85;;;;;;;20.95;41.26;99473.19;343798;28;1186;-68
2022/07/28 00:32:23;;;;;;;1.75;0.73;;;;;;;20.97;41.30;99476.56;343984;28;1204;-68
2022/07/28 00:32:36;;;;;;;1.85;0.60;;;;;;;20.96;41.97;99474.84;343215;28;1842;-68
2022/07/28 00:32:48;;;;;;;1.60;0.70;;;;;;;20.96;41.85;99480.13;342937;28;1545;-69
2022/07/28 00:33:00;;;;;;;1.48;0.73;;;;;;;20.97;41.96;99475.69;344579;28;1173;-69
2022/07/28 00:33:12;;;;;;;1.77;0.80;;;;;;;20.97;41.81;99471.25;343108;28;1761;-69
2022/07/28 00:33:24;;;;;;;1.73;0.73;;;;;;;20.96;41.62;99477.50;342239;28;1831;-70
2022/07/28 00:33:36;;;;;;;2.03;0.80;;;;;;;20.97;41.70;99476.56;343844;28;1721;-69
2022/07/28 00:33:48;;;;;;;2.35;0.88;;;;;;;20.96;41.82;99474.84;343999;28;1252;-69
2022/07/28 00:34:00;;;;;;;2.28;0.88;;;;;;;20.98;41.40;99472.94;342962;28;1844;-70
2022/07/28 00:34:12;;;;;;;2.38;0.80;;;;;;;20.98;41.23;99472.94;343404;28;1066;-69
2022/07/28 00:34:25;;;;;;;1.88;0.75;;;;;;;20.98;41.65;99477.38;343610;28;1087;-69
2022/07/28 00:34:37;;;;;;;1.60;0.80;;;;;;;20.98;41.65;99475.56;342915;28;1776;-70
2022/07/28 00:34:52;;;;;;;3.20;0.80;;;;;;;20.98;41.88;99466.81;343216;28;1836;-70
2022/07/28 00:35:05;;;;;;;3.20;0.70;;;;;;;20.98;41.72;99472.94;343601;28;1688;-69
2022/07/28 00:35:19;;;;;;;2.63;0.65;;;;;;;20.97;41.41;99465.97;344644;28;1200;-69
2022/07/28 00:35:42;;;;;;;2.83;0.70;;;;;;;20.99;41.72;99479.03;344124;28;1825;-70
2022/07/28 00:35:59;;;;;;;3.80;0.82;;;;;;;21.01;41.76;99472.69;344800;28;1212;-70
2022/07/28 00:36:12;;;;;;;3.42;0.90;;;;;;;21.01;41.83;99474.50;344936;28;1193;-69
2022/07/28 00:36:24;;;;;;;2.45;0.90;;;;;;;21.00;42.21;99476.28;344109;28;1812;-69
2022/07/28 00:36:36;;;;;;;1.90;0.88;;;;;;;21.00;42.17;99480.75;345318;28;2044;-69
2022/07/28 00:36:49;;;;;;;1.80;0.88;;;;;;;21.00;42.75;99471.00;344376;28;1807;-69
2022/07/28 00:37:02;;;;;;;1.40;0.90;;;;;;;20.98;42.74;99478.22;343695;28;1249;-69
2022/07/28 00:37:17;;;;;;;1.23;0.90;;;;;;;20.98;42.35;99472.94;343740;28;986;-69
2022/07/28 00:37:29;;;;;;;1.42;0.88;;;;;;;20.98;42.34;99478.22;343982;28;1112;-69
2022/07/28 00:37:41;;;;;;;1.92;1.00;;;;;;;20.99;42.19;99479.91;343561;28;1802;-69
2022/07/28 00:37:53;;;;;;;1.52;0.82;;;;;;;20.99;41.58;99474.63;344660;28;1859;-69
2022/07/28 00:38:07;;;;;;;1.33;0.90;;;;;;;20.99;42.09;99477.25;342641;28;1046;-69
2022/07/28 00:38:22;;;;;;;1.35;0.98;;;;;;;20.99;42.02;99473.75;342563;28;1215;-69
2022/07/28 00:38:35;;;;;;;2.47;0.90;;;;;;;20.98;41.83;99474.75;342741;28;2024;-69
2022/07/28 00:38:52;;;;;;;2.50;0.80;;;;;;;20.99;41.75;99471.13;343728;28;1696;-69
2022/07/28 00:39:04;;;;;;;1.17;0.80;;;;;;;20.98;42.12;99470.28;343712;28;1334;-70
2022/07/28 00:39:17;;;;;;;1.77;0.80;;;;;;;20.97;42.11;99475.69;342479;28;1834;-69
2022/07/28 00:39:29;;;;;;;2.67;0.82;;;;;;;20.95;42.48;99475.84;344404;28;1314;-69
2022/07/28 00:39:41;;;;;;;3.47;1.00;;;;;;;20.97;42.17;99471.25;345017;28;1463;-69
2022/07/28 00:39:53;;;;;;;2.60;1.05;;;;;;;20.98;42.13;99472.94;345006;28;1238;-69
2022/07/28 00:40:07;;;;;;;1.90;0.90;;;;;;;20.97;41.69;99471.25;344959;28;1118;-69
2022/07/28 00:40:19;;;;;;;1.80;0.90;;;;;;;20.97;41.41;99473.03;343605;28;1107;-69
2022/07/28 00:41:11;;;;;;;2.42;0.88;;;;;;;20.97;41.22;99468.63;344210;28;1327;-69
2022/07/28 00:41:23;;;;;;;5.00;1.10;;;;;;;20.94;41.18;99468.84;345180;28;1237;-70
2022/07/28 00:41:35;;;;;;;3.25;1.00;;;;;;;20.95;41.37;99475.84;343038;28;1673;-70
2022/07/28 00:41:47;;;;;;;1.95;0.80;;;;;;;20.94;41.64;99476.78;344252;28;1478;-70
2022/07/28 00:42:01;;;;;;;1.55;0.70;;;;;;;20.93;41.16;99475.09;343884;28;1406;-69
2022/07/28 00:42:17;;;;;;;1.42;0.73;;;;;;;20.92;41.33;99479.53;343826;28;1232;-69
2022/07/28 00:42:29;;;;;;;1.48;0.75;;;;;;;20.92;41.36;99478.69;342793;28;1161;-69
2022/07/28 00:42:41;;;;;;;1.60;0.70;;;;;;;20.93;41.14;99475.09;342549;28;1728;-69
2022/07/28 00:42:53;;;;;;;1.98;0.75;;;;;;;20.93;41.20;99472.47;344516;28;1663;-69
2022/07/28 00:43:05;;;;;;;2.22;0.70;;;;;;;20.92;40.89;99468.13;343748;28;1074;-69
2022/07/28 00:43:18;;;;;;;1.92;0.70;;;;;;;20.93;40.89;99475.09;343897;28;1144;-69
2022/07/28 00:43:31;;;;;;;1.75;0.80;;;;;;;20.84;40.82;99481.09;343884;28;1163;-69
2022/07/28 00:43:47;;;;;;;2.47;0.85;;;;;;;20.86;41.88;99476.53;343149;28;2159;-69
2022/07/28 00:43:59;;;;;;;3.10;0.80;;;;;;;20.88;41.79;99477.25;344233;28;1118;-69
2022/07/28 00:44:12;;;;;;;2.10;0.70;;;;;;;20.87;42.23;99478.22;342658;28;2171;-69
2022/07/28 00:44:24;;;;;;;1.50;0.70;;;;;;;20.87;41.71;99478.22;342372;28;1089;-69
2022/07/28 00:44:40;;;;;;;1.70;0.70;;;;;;;20.88;41.41;99482.53;342195;28;1889;-69
2022/07/28 00:44:52;;;;;;;3.13;0.70;;;;;;;20.86;41.28;99473.91;343180;28;1897;-69
2022/07/28 00:45:05;;;;;;;2.55;0.70;;;;;;;20.88;41.39;99477.25;342970;28;1677;-69
2022/07/28 00:45:17;;;;;;;1.33;0.70;;;;;;;20.88;41.31;99471.97;342620;28;1675;-69
2022/07/28 00:45:29;;;;;;;1.08;0.75;;;;;;;20.86;41.21;99479.19;343407;28;1059;-69
2022/07/28 00:45:41;;;;;;;1.45;0.77;;;;;;;20.81;40.79;99476.91;342836;28;1806;-69
2022/07/28 00:45:53;;;;;;;1.60;0.80;;;;;;;20.55;40.68;99470.97;344758;28;1664;-69
2022/07/28 00:46:07;;;;;;;2.70;0.90;;;;;;;20.64;41.08;99478.19;343437;28;1153;-69
2022/07/28 00:46:21;;;;;;;2.17;0.90;;;;;;;20.68;41.06;99471.72;343269;28;1035;-69
2022/07/28 00:46:33;;;;;;;2.50;0.90;;;;;;;20.70;40.93;99469.78;343475;28;1158;-69
2022/07/28 00:46:45;;;;;;;2.50;0.90;;;;;;;20.72;41.36;99472.31;344916;28;1447;-69
2022/07/28 00:46:57;;;;;;;2.58;0.85;;;;;;;20.72;41.81;99467.88;344798;28;1269;-69
2022/07/28 00:47:10;;;;;;;2.88;0.80;;;;;;;20.76;41.50;99473.78;345165;28;1785;-70
2022/07/28 00:47:22;;;;;;;2.45;0.80;;;;;;;20.77;41.48;99464.06;343781;28;1795;-69
2022/07/28 00:47:34;;;;;;;2.20;0.80;;;;;;;20.72;40.96;99467.88;344183;28;1819;-69
2022/07/28 00:47:46;;;;;;;1.80;0.80;;;;;;;20.63;40.38;99473.06;343817;28;1291;-69
2022/07/28 00:47:58;;;;;;;2.05;0.70;;;;;;;20.65;41.04;99466.69;343104;28;1913;-69
2022/07/28 00:48:10;;;;;;;2.70;0.65;;;;;;;20.67;41.11;99475.34;343783;28;1082;-69
2022/07/28 00:48:23;;;;;;;2.70;0.70;;;;;;;20.70;41.25;99469.78;343420;28;1147;-69
2022/07/28 00:48:40;;;;;;;1.95;0.80;;;;;;;20.75;41.51;99467.66;343874;28;2002;-69
2022/07/28 00:48:53;;;;;;;1.70;0.80;;;;;;;20.77;41.35;99474.63;344435;28;1839;-69
2022/07/28 00:49:06;;;;;;;1.55;0.70;;;;;;;20.78;41.56;99471.00;343633;28;1527;-69
2022/07/28 00:49:18;;;;;;;1.70;0.70;;;;;;;20.77;41.43;99469.34;343787;28;1180;-69
2022/07/28 00:49:30;;;;;;;2.08;0.80;;;;;;;20.78;41.56;99473.66;343516;28;1250;-69
2022/07/28 00:49:43;;;;;;;2.55;0.80;;;;;;;20.78;41.45;99471.00;343140;28;1668;-69
2022/07/28 00:49:55;;;;;;;3.08;0.80;;;;;;;20.78;41.94;99468.38;343963;28;2545;-69
2022/07/28 00:50:08;;;;;;;2.15;0.70;;;;;;;20.77;41.43;99470.19;343553;28;1875;-69
2022/07/28 00:50:20;;;;;;;0.88;0.73;;;;;;;20.79;41.50;99467.44;345130;28;1058;-69
2022/07/28 00:50:32;;;;;;;1.00;0.77;;;;;;;20.80;41.35;99469.94;345123;28;1074;-69
2022/07/28 00:50:44;;;;;;;1.27;0.80;;;;;;;20.82;41.83;99472.47;343543;28;1919;-69
2022/07/28 00:50:56;;;;;;;1.85;0.90;;;;;;;20.84;41.60;99471.38;344658;28;1781;-69
2022/07/28 00:51:09;;;;;;;2.08;0.90;;;;;;;20.76;42.45;99476.41;343341;28;1936;-69
2022/07/28 00:51:25;;;;;;;1.75;0.82;;;;;;;20.78;41.93;99471.00;342445;28;1192;-69
2022/07/28 00:51:38;;;;;;;1.10;0.70;;;;;;;20.80;41.68;99474.38;342944;28;1787;-70
2022/07/28 00:51:50;;;;;;;2.35;0.80;;;;;;;20.78;41.40;99471.84;343716;28;1616;-69
2022/07/28 00:52:07;;;;;;;3.65;0.90;;;;;;;20.80;41.50;99469.94;344152;28;1258;-70
2022/07/28 00:52:20;;;;;;;4.05;0.80;;;;;;;20.83;41.40;99479.44;344225;28;1835;-69
2022/07/28 00:52:32;;;;;;;3.15;0.70;;;;;;;20.84;41.36;99475.81;345210;28;1220;-70
2022/07/28 00:52:45;;;;;;;1.38;0.70;;;;;;;20.86;41.61;99473.91;344918;28;1246;-69
2022/07/28 00:52:57;;;;;;;1.55;0.73;;;;;;;20.86;41.32;99463.31;343664;28;2166;-70
2022/07/28 00:53:09;;;;;;;1.65;0.80;;;;;;;20.89;41.79;99473.66;343887;28;2217;-70
2022/07/28 00:53:22;;;;;;;2.00;0.85;;;;;;;20.89;41.53;99471.03;342917;28;1679;-69
2022/07/28 00:53:35;;;;;;;2.20;0.80;;;;;;;20.90;41.28;99475.34;343810;28;1023;-69
2022/07/28 00:53:48;;;;;;;2.45;0.77;;;;;;;20.88;40.92;99471.97;343736;28;1759;-69
2022/07/28 00:54:00;;;;;;;2.33;0.70;;;;;;;20.89;40.88;99463.09;343806;28;1545;-70
2022/07/28 00:54:12;;;;;;;1.77;0.70;;;;;;;20.86;41.59;99463.31;342656;28;1355;-69
2022/07/28 00:54:24;;;;;;;1.90;0.70;;;;;;;20.83;40.68;99466.22;342067;28;2070;-70
2022/07/28 00:54:36;;;;;;;1.60;0.70;;;;;;;20.81;40.66;99466.34;342815;28;1913;-70
2022/07/28 00:54:48;;;;;;;1.38;0.80;;;;;;;20.82;40.90;99462.72;343524;28;1704;-70
2022/07/28 00:55:04;;;;;;;1.63;0.75;;;;;;;20.83;41.11;99469.69;343114;28;1784;-69
2022/07/28 00:55:17;;;;;;;2.15;0.70;;;;;;;20.81;40.95;99465.50;343285;28;1963;-69
2022/07/28 00:55:29;;;;;;;1.90;0.70;;;;;;;20.81;41.38;99470.78;342768;28;1093;-70
2022/07/28 00:55:41;;;;;;;1.73;0.80;;;;;;;20.80;41.14;99469.09;342603;28;2048;-70
2022/07/28 00:56:13;;;;;;;1.60;0.90;;;;;;;20.79;41.41;99465.63;342397;28;1232;-70
2022/07/28 00:56:26;;;;;;;1.70;0.90;;;;;;;20.81;41.19;99470.78;342555;28;1154;-70
2022/07/28 00:56:38;;;;;;;1.58;0.82;;;;;;;20.71;40.21;99466.22;343139;28;2399;-70
2022/07/28 00:56:50;;;;;;;1.75;0.70;;;;;;;20.68;40.39;99471.72;343893;28;1713;-69
2022/07/28 00:57:02;;;;;;;1.58;0.68;;;;;;;20.62;40.70;99466.06;343068;28;2003;-70
2022/07/28 00:57:14;;;;;;;1.45;0.75;;;;;;;20.63;41.11;99473.06;343705;28;1260;-70
2022/07/28 00:57:26;;;;;;;1.88;0.80;;;;;;;20.64;40.79;99467.63;343799;28;1274;-69
2022/07/28 00:57:39;;;;;;;1.92;0.85;;;;;;;20.65;40.63;99466.69;343215;28;1534;-69
2022/07/28 00:57:51;;;;;;;2.40;0.95;;;;;;;20.65;40.59;99476.41;343833;28;1681;-69
2022/07/28 00:58:04;;;;;;;3.10;0.95;;;;;;;20.65;40.44;99469.31;343433;28;1427;-69
2022/07/28 00:58:16;;;;;;;3.10;0.80;;;;;;;20.68;40.61;99471.72;343749;28;1227;-70
2022/07/28 00:58:28;;;;;;;3.30;0.80;;;;;;;20.68;40.79;99471.72;343959;28;1057;-70
2022/07/28 00:58:40;;;;;;;3.75;0.80;;;;;;;20.65;41.64;99471.97;343181;28;2084;-70
2022/07/28 00:58:53;;;;;;;2.55;0.80;;;;;;;20.66;41.40;99463.06;343574;28;1755;-70
2022/07/28 00:59:05;;;;;;;1.92;0.80;;;;;;;20.70;40.94;99464.50;343756;28;1355;-69
2022/07/28 00:59:17;;;;;;;1.88;0.75;;;;;;;20.71;40.85;99468.84;343839;28;1286;-69
2022/07/28 00:59:29;;;;;;;2.20;0.80;;;;;;;20.74;40.54;99471.28;343758;28;1255;-69
2022/07/28 00:59:44;;;;;;;2.70;0.80;;;;;;;20.78;40.52;99471.00;343324;28;1810;-70
2022/07/28 00:59:56;;;;;;;2.85;0.70;;;;;;;20.80;40.65;99469.09;344531;28;1560;-70
2022/07/28 01:00:09;;;;;;;2.08;0.70;;;;;;;20.79;41.66;99457.69;343908;28;1062;-69
2022/07/28 01:00:21;;;;;;;2.25;0.70;;;;;;;20.80;41.56;99466.44;344636;28;1876;-70
2022/07/28 01:00:33;;;;;;;1.55;0.80;;;;;;;20.81;41.61;99465.50;345131;28;1295;-70
2022/07/28 01:00:45;;;;;;;1.92;0.80;;;;;;;20.82;41.61;99456.59;343250;28;1660;-70
2022/07/28 01:00:57;;;;;;;2.25;0.80;;;;;;;20.82;41.24;99464.53;344982;28;1337;-70
2022/07/28 01:01:14;;;;;;;2.53;0.85;;;;;;;20.78;40.80;99463.91;345146;28;1090;-70
2022/07/28 01:01:26;;;;;;;2.10;0.80;;;;;;;20.74;41.81;99471.28;344755;28;1202;-70
2022/07/28 01:01:38;;;;;;;1.70;0.75;;;;;;;20.75;41.44;99470.28;344677;28;1471;-70
2022/07/28 01:01:51;;;;;;;1.27;0.80;;;;;;;20.78;41.81;99465.72;344610;28;1046;-70
2022/07/28 01:02:06;;;;;;;1.55;0.90;;;;;;;20.77;41.58;99464.06;343385;28;1365;-70
2022/07/28 01:02:19;;;;;;;2.22;0.88;;;;;;;20.77;41.75;99469.34;343298;28;1007;-70